KBWD

Brownwood Regional Airport

Brownwood, Texas, USA
METAR KBWD 232035Z AUTO 04005KT 10SM CLR 21/09 A3014 RMK AO2 PWINO PNO
Observed Flight Rules
Oct-23 @ 20:35 UTC (28 minutes ago) Visual Flight Rules
Wind Visibility Clouds
40° at 5 knots 10 miles
  • Clear skies
Temperatures Readings
Current 21°C / 70°F
Dewpoint 9°C / 48°F
Humidity 46%
Altimeter 30.14" Hg
Pressure 1021 hPa
Elevation 423
METAR KBWD 232035Z AUTO 04005KT 10SM CLR 21/09 A3014 RMK AO2 PWINO PNO
Observed Flight Rules
Oct-23 @ 20:35 UTC
(28 minutes ago)
VFR
Wind Visibility
40° at 5 knots 10 miles
Clouds
  • Clear skies
Temperature Dewpoint
21°C / 70°F 9°C / 48°F
Humidity Altimeter Pressure
46% 30.14" Hg 1021 hPa